Weather at Bern-Belp Airport

Public forecast

Using degrees Celsius for public forecast. Weather courtesy of forecast.io.

Current aviation weather report (METAR) for Bern-Belp Airport

Report is more than 6 hours old.

2022/11/14 15:20 (retrieved 2 years ago)

LSZB 141520Z AUTO 04001KT 9999 FEW120 SCT130 BKN140 09/08 Q1017

Closest aviation forecast (TAF) to Bern-Belp Airport

Forecast is more than 12 hours old.

Closest forecast is Payerne Air Base, 24.4 nm (45.1 km) W.

2023/02/22 17:00 (retrieved 1 year ago)

TAF LSMP 221625Z 2217/2323 VRB02KT 8000 BKN050